Neptune Pioneer — 3EKH6 — position and weather

sailwx.info

Track history (hours):
 
Tides and Currents Weather Stations Pressure Air Temp Water Temp Dewpoint Dewpoint Depression Visibility Wind Speed Wind Dir Waves Ship Positions

Neptune Pioneer

Last reported at 2015-Jan-27 09:33 UTC. Time now 2015-Jan-27 21:03 UTC.
Position N 35°14' E 119°52'.

Length 190 m; draft 8.2 m.

Type: Cargo ship. MMSI: 372723000.

Date/timePositionNaut miles runAvg speedWind from/ knotsBaromVisibWave heightAir tempDewpointWater temp
2015-Jan-27 09:33N 35°14' E 119°52'1212.2
2015-Jan-27 08:33N 35°18' E 119°38'6 1.9
2015-Jan-27 05:30N 35°22' E 119°32'0 0.0
2015-Jan-27 04:24N 35°22' E 119°32'0 0.0
2015-Jan-27 03:30N 35°22' E 119°32'0 0.0
2015-Jan-27 02:30N 35°22' E 119°32'0 0.0
2015-Jan-27 01:24N 35°22' E 119°32'0 0.0
2015-Jan-27 00:33N 35°22' E 119°32'0 0.0
2015-Jan-26 23:33N 35°22' E 119°32'0 0.0
2015-Jan-26 22:34N 35°22' E 119°32'0 0.0
2015-Jan-26 21:28N 35°22' E 119°32'0 0.0
2015-Jan-26 20:34N 35°22' E 119°32'0 0.0
2015-Jan-26 19:34N 35°22' E 119°32'0 0.0
2015-Jan-26 18:34N 35°22' E 119°32'0 0.0
2015-Jan-26 17:28N 35°22' E 119°32'0 0.0
2015-Jan-26 16:28N 35°22' E 119°32'0 0.0
2015-Jan-26 15:28N 35°22' E 119°32'0 0.0
2015-Jan-26 14:28N 35°22' E 119°32'0 0.0
2015-Jan-26 13:28N 35°22' E 119°32'0 0.0
2015-Jan-26 12:28N 35°22' E 119°32'0 0.0
2015-Jan-26 11:22N 35°22' E 119°32'0 0.0
2015-Jan-26 10:28N 35°22' E 119°32'0 0.0
2015-Jan-26 09:28N 35°22' E 119°32'0 0.1
2015-Jan-26 08:33N 35°22' E 119°32'8 8.0
2015-Jan-26 07:33N 35°17' E 119°40'2 2.0
2015-Jan-26 06:29N 35°15' E 119°41'0 0.0
2015-Jan-26 05:29N 35°15' E 119°41'0 0.0
2015-Jan-26 04:29N 35°15' E 119°41'0 0.2
2015-Jan-26 03:29N 35°15' E 119°41'0 0.0
2015-Jan-26 02:30N 35°15' E 119°41'0 0.0
2015-Jan-26 01:29N 35°15' E 119°41'0 0.0
2015-Jan-26 00:30N 35°15' E 119°41'202 5.9
2015-Jan-24 14:18N 38°19' E 121°25'15012.6
2015-Jan-24 02:26N 38°50' E 118°18'1112.1
2015-Jan-24 01:33N 38°55' E 118°06'1111.2
2015-Jan-24 00:33N 38°58' E 117°52'4 4.0
2015-Jan-23 23:32N 38°58' E 117°47'0 0.0
2015-Jan-23 22:32N 38°58' E 117°47'0 0.0
2015-Jan-23 21:32N 38°58' E 117°47'0 0.0
2015-Jan-23 20:08N 38°58' E 117°47'0 0.0
2015-Jan-23 19:32N 38°58' E 117°47'0 0.0
2015-Jan-23 18:32N 38°58' E 117°47'0 0.0
2015-Jan-23 17:32N 38°58' E 117°47'0 0.0
2015-Jan-23 16:32N 38°58' E 117°47'0 0.0
2015-Jan-23 15:32N 38°58' E 117°47'0 0.0
2015-Jan-23 14:32N 38°58' E 117°47'0 0.0
2015-Jan-23 13:32N 38°58' E 117°47'0 0.0
2015-Jan-23 12:32N 38°58' E 117°47'0 0.0
2015-Jan-23 11:32N 38°58' E 117°47'0 0.0
2015-Jan-23 10:32N 38°58' E 117°47'0 0.0
2015-Jan-23 09:32N 38°58' E 117°47'0 0.0
2015-Jan-23 08:32N 38°58' E 117°47'0 0.0
2015-Jan-23 07:32N 38°58' E 117°47'0 0.0
2015-Jan-23 06:32N 38°58' E 117°47'0 0.0
2015-Jan-23 05:32N 38°58' E 117°47'0 0.0
2015-Jan-23 04:32N 38°58' E 117°47'0 0.0
2015-Jan-23 03:20N 38°58' E 117°47'0 0.0
2015-Jan-23 02:20N 38°58' E 117°47'0 0.0
2015-Jan-23 01:32N 38°58' E 117°47'0 0.0
2015-Jan-23 00:32N 38°58' E 117°47'0 0.0
2015-Jan-22 23:33N 38°58' E 117°47'7 6.5
2015-Jan-22 22:33N 38°57' E 117°55'7 1.8
2015-Jan-22 18:30N 38°55' E 118°04'0 0.0
2015-Jan-22 17:24N 38°55' E 118°04'0 0.0
2015-Jan-22 16:12N 38°55' E 118°04'0 0.1
2015-Jan-22 15:30N 38°55' E 118°04'0 0.1
2015-Jan-22 14:30N 38°55' E 118°04'0 0.0
2015-Jan-22 13:11N 38°55' E 118°04'0 0.0
2015-Jan-22 12:24N 38°55' E 118°04'0 0.0
2015-Jan-22 11:18N 38°55' E 118°04'0 0.0
2015-Jan-22 10:18N 38°55' E 118°04'0 0.1
2015-Jan-22 09:23N 38°55' E 118°04'0 0.1
2015-Jan-22 08:29N 38°55' E 118°04'0 0.0
2015-Jan-22 07:29N 38°55' E 118°04'0 0.0
2015-Jan-22 06:30N 38°55' E 118°04'0 0.0
2015-Jan-22 05:30N 38°55' E 118°04'0 0.0
2015-Jan-22 04:30N 38°55' E 118°04'0 0.1
2015-Jan-22 03:30N 38°55' E 118°04'0 0.1
2015-Jan-22 02:29N 38°55' E 118°04'0 0.0
2015-Jan-22 01:29N 38°55' E 118°04'0 0.0
2015-Jan-22 00:23N 38°55' E 118°04'0 0.0
2015-Jan-21 23:23N 38°55' E 118°04'0 0.0
2015-Jan-21 22:41N 38°55' E 118°04'0 0.0
2015-Jan-21 21:29N 38°55' E 118°04'0 0.1
2015-Jan-21 20:29N 38°55' E 118°04'0 0.1
2015-Jan-21 19:23N 38°55' E 118°04'0 0.0
2015-Jan-21 17:29N 38°55' E 118°04'0 0.0
2015-Jan-21 16:29N 38°55' E 118°04'0 0.0
2015-Jan-21 15:29N 38°55' E 118°04'0 0.1
2015-Jan-21 14:29N 38°55' E 118°04'0 0.1
2015-Jan-21 13:17N 38°55' E 118°04'0 0.0
2015-Jan-21 12:29N 38°55' E 118°04'0 0.0
2015-Jan-21 11:29N 38°55' E 118°04'0 0.0
2015-Jan-21 10:29N 38°55' E 118°04'0 0.1
2015-Jan-21 09:29N 38°55' E 118°04'0 0.0
2015-Jan-21 08:23N 38°55' E 118°04'0 0.2
2015-Jan-21 07:29N 38°55' E 118°04'0 0.0
2015-Jan-21 06:17N 38°55' E 118°04'0 0.6
2015-Jan-21 05:33N 38°54' E 118°04'6 5.8
2015-Jan-21 04:28N 38°54' E 118°12'15013.6
2015-Jan-20 17:27N 38°25' E 121°21'  
Track history (hours):
 
Tides and Currents Weather Stations Pressure Air Temp Water Temp Dewpoint Dewpoint Depression Visibility Wind Speed Wind Dir Waves Ship Positions

Neptune Pioneer

Last reported at 2015-Jan-27 09:33 UTC. Time now 2015-Jan-27 21:03 UTC.
Position N 35°14' E 119°52'.

Length 190 m; draft 8.2 m.

Type: Cargo ship. MMSI: 372723000.

Date/timePositionNaut miles runAvg speedWind from/ knotsBaromVisibWave heightAir tempDewpointWater temp
2015-Jan-27 09:33N 35°14' E 119°52'1212.2
2015-Jan-27 08:33N 35°18' E 119°38'6 1.9
2015-Jan-27 05:30N 35°22' E 119°32'0 0.0
2015-Jan-27 04:24N 35°22' E 119°32'0 0.0
2015-Jan-27 03:30N 35°22' E 119°32'0 0.0
2015-Jan-27 02:30N 35°22' E 119°32'0 0.0
2015-Jan-27 01:24N 35°22' E 119°32'0 0.0
2015-Jan-27 00:33N 35°22' E 119°32'0 0.0
2015-Jan-26 23:33N 35°22' E 119°32'0 0.0
2015-Jan-26 22:34N 35°22' E 119°32'0 0.0
2015-Jan-26 21:28N 35°22' E 119°32'0 0.0
2015-Jan-26 20:34N 35°22' E 119°32'0 0.0
2015-Jan-26 19:34N 35°22' E 119°32'0 0.0
2015-Jan-26 18:34N 35°22' E 119°32'0 0.0
2015-Jan-26 17:28N 35°22' E 119°32'0 0.0
2015-Jan-26 16:28N 35°22' E 119°32'0 0.0
2015-Jan-26 15:28N 35°22' E 119°32'0 0.0
2015-Jan-26 14:28N 35°22' E 119°32'0 0.0
2015-Jan-26 13:28N 35°22' E 119°32'0 0.0
2015-Jan-26 12:28N 35°22' E 119°32'0 0.0
2015-Jan-26 11:22N 35°22' E 119°32'0 0.0
2015-Jan-26 10:28N 35°22' E 119°32'0 0.0
2015-Jan-26 09:28N 35°22' E 119°32'0 0.1
2015-Jan-26 08:33N 35°22' E 119°32'8 8.0
2015-Jan-26 07:33N 35°17' E 119°40'2 2.0
2015-Jan-26 06:29N 35°15' E 119°41'0 0.0
2015-Jan-26 05:29N 35°15' E 119°41'0 0.0
2015-Jan-26 04:29N 35°15' E 119°41'0 0.2
2015-Jan-26 03:29N 35°15' E 119°41'0 0.0
2015-Jan-26 02:30N 35°15' E 119°41'0 0.0
2015-Jan-26 01:29N 35°15' E 119°41'0 0.0
2015-Jan-26 00:30N 35°15' E 119°41'202 5.9
2015-Jan-24 14:18N 38°19' E 121°25'15012.6
2015-Jan-24 02:26N 38°50' E 118°18'1112.1
2015-Jan-24 01:33N 38°55' E 118°06'1111.2
2015-Jan-24 00:33N 38°58' E 117°52'4 4.0
2015-Jan-23 23:32N 38°58' E 117°47'0 0.0
2015-Jan-23 22:32N 38°58' E 117°47'0 0.0
2015-Jan-23 21:32N 38°58' E 117°47'0 0.0
2015-Jan-23 20:08N 38°58' E 117°47'0 0.0
2015-Jan-23 19:32N 38°58' E 117°47'0 0.0
2015-Jan-23 18:32N 38°58' E 117°47'0 0.0
2015-Jan-23 17:32N 38°58' E 117°47'0 0.0
2015-Jan-23 16:32N 38°58' E 117°47'0 0.0
2015-Jan-23 15:32N 38°58' E 117°47'0 0.0
2015-Jan-23 14:32N 38°58' E 117°47'0 0.0
2015-Jan-23 13:32N 38°58' E 117°47'0 0.0
2015-Jan-23 12:32N 38°58' E 117°47'0 0.0
2015-Jan-23 11:32N 38°58' E 117°47'0 0.0
2015-Jan-23 10:32N 38°58' E 117°47'0 0.0
2015-Jan-23 09:32N 38°58' E 117°47'0 0.0
2015-Jan-23 08:32N 38°58' E 117°47'0 0.0
2015-Jan-23 07:32N 38°58' E 117°47'0 0.0
2015-Jan-23 06:32N 38°58' E 117°47'0 0.0
2015-Jan-23 05:32N 38°58' E 117°47'0 0.0
2015-Jan-23 04:32N 38°58' E 117°47'0 0.0
2015-Jan-23 03:20N 38°58' E 117°47'0 0.0
2015-Jan-23 02:20N 38°58' E 117°47'0 0.0
2015-Jan-23 01:32N 38°58' E 117°47'0 0.0
2015-Jan-23 00:32N 38°58' E 117°47'0 0.0
2015-Jan-22 23:33N 38°58' E 117°47'7 6.5
2015-Jan-22 22:33N 38°57' E 117°55'7 1.8
2015-Jan-22 18:30N 38°55' E 118°04'0 0.0
2015-Jan-22 17:24N 38°55' E 118°04'0 0.0
2015-Jan-22 16:12N 38°55' E 118°04'0 0.1
2015-Jan-22 15:30N 38°55' E 118°04'0 0.1
2015-Jan-22 14:30N 38°55' E 118°04'0 0.0
2015-Jan-22 13:11N 38°55' E 118°04'0 0.0
2015-Jan-22 12:24N 38°55' E 118°04'0 0.0
2015-Jan-22 11:18N 38°55' E 118°04'0 0.0
2015-Jan-22 10:18N 38°55' E 118°04'0 0.1
2015-Jan-22 09:23N 38°55' E 118°04'0 0.1
2015-Jan-22 08:29N 38°55' E 118°04'0 0.0
2015-Jan-22 07:29N 38°55' E 118°04'0 0.0
2015-Jan-22 06:30N 38°55' E 118°04'0 0.0
2015-Jan-22 05:30N 38°55' E 118°04'0 0.0
2015-Jan-22 04:30N 38°55' E 118°04'0 0.1
2015-Jan-22 03:30N 38°55' E 118°04'0 0.1
2015-Jan-22 02:29N 38°55' E 118°04'0 0.0
2015-Jan-22 01:29N 38°55' E 118°04'0 0.0
2015-Jan-22 00:23N 38°55' E 118°04'0 0.0
2015-Jan-21 23:23N 38°55' E 118°04'0 0.0
2015-Jan-21 22:41N 38°55' E 118°04'0 0.0
2015-Jan-21 21:29N 38°55' E 118°04'0 0.1
2015-Jan-21 20:29N 38°55' E 118°04'0 0.1
2015-Jan-21 19:23N 38°55' E 118°04'0 0.0
2015-Jan-21 17:29N 38°55' E 118°04'0 0.0
2015-Jan-21 16:29N 38°55' E 118°04'0 0.0
2015-Jan-21 15:29N 38°55' E 118°04'0 0.1
2015-Jan-21 14:29N 38°55' E 118°04'0 0.1
2015-Jan-21 13:17N 38°55' E 118°04'0 0.0
2015-Jan-21 12:29N 38°55' E 118°04'0 0.0
2015-Jan-21 11:29N 38°55' E 118°04'0 0.0
2015-Jan-21 10:29N 38°55' E 118°04'0 0.1
2015-Jan-21 09:29N 38°55' E 118°04'0 0.0
2015-Jan-21 08:23N 38°55' E 118°04'0 0.2
2015-Jan-21 07:29N 38°55' E 118°04'0 0.0
2015-Jan-21 06:17N 38°55' E 118°04'0 0.6
2015-Jan-21 05:33N 38°54' E 118°04'6 5.8
2015-Jan-21 04:28N 38°54' E 118°12'15013.6
2015-Jan-20 17:27N 38°25' E 121°21'  

Dump ship's entire track history